createdAt,value
2022-09-02T00:02:58.580Z,98661.13
2022-09-02T00:08:20.425Z,98651.06
2022-09-02T00:13:42.464Z,98652.75
2022-09-02T00:19:05.020Z,98648.69
2022-09-02T00:24:27.214Z,98642.00
2022-09-02T00:29:49.388Z,98641.28
2022-09-02T00:35:11.520Z,98630.88
2022-09-02T00:40:34.815Z,98632.41
2022-09-02T00:45:56.660Z,98627.94
2022-09-02T00:51:18.528Z,98622.66
2022-09-02T00:56:43.628Z,98619.50
2022-09-02T01:02:07.389Z,98619.00
2022-09-02T01:07:33.906Z,98621.38
2022-09-02T01:12:58.334Z,98621.88
2022-09-02T01:18:28.904Z,98629.44
2022-09-02T01:23:52.701Z,98628.19
2022-09-02T01:29:16.423Z,98621.94
2022-09-02T01:34:38.238Z,98627.00
2022-09-02T01:40:00.853Z,98625.31
2022-09-02T01:45:23.078Z,98629.06
2022-09-02T01:50:48.102Z,98626.69
2022-09-02T01:56:10.122Z,98629.09
2022-09-02T02:01:31.959Z,98622.50
2022-09-02T02:06:53.798Z,98621.19
2022-09-02T02:12:17.219Z,98627.91
2022-09-02T02:17:39.032Z,98625.25
2022-09-02T02:23:00.746Z,98626.19
2022-09-02T02:28:22.488Z,98621.78
2022-09-02T02:33:44.300Z,98619.63
2022-09-02T02:39:09.866Z,98612.91
2022-09-02T02:44:31.804Z,98608.72
2022-09-02T02:49:53.560Z,98606.34
2022-09-02T02:55:16.532Z,98604.44
2022-09-02T03:00:38.829Z,98605.97
2022-09-02T03:06:00.550Z,98604.44
2022-09-02T03:11:22.546Z,98608.25
2022-09-02T03:16:44.682Z,98605.50
2022-09-02T03:22:06.726Z,98610.16
2022-09-02T03:27:28.442Z,98608.19
2022-09-02T03:32:52.323Z,98599.25
2022-09-02T03:38:14.105Z,98603.59
2022-09-02T03:43:35.822Z,98607.00
2022-09-02T03:48:57.756Z,98606.56
2022-09-02T03:54:19.716Z,98598.16
2022-09-02T03:59:41.547Z,98605.50
2022-09-02T04:05:03.647Z,98599.88
2022-09-02T04:10:26.400Z,98600.81
2022-09-02T04:15:49.360Z,98607.03
2022-09-02T04:21:12.140Z,98611.53
2022-09-02T04:26:33.864Z,98604.72
2022-09-02T04:31:55.580Z,98606.09
2022-09-02T04:37:17.533Z,98593.72
2022-09-02T04:42:39.514Z,98591.72
2022-09-02T04:48:02.036Z,98592.63
2022-09-02T04:53:23.929Z,98598.00
2022-09-02T04:58:45.870Z,98597.31
2022-09-02T05:04:09.791Z,98598.91
2022-09-02T05:09:32.298Z,98593.06
2022-09-02T05:14:57.005Z,98601.06
2022-09-02T05:20:19.222Z,98594.47
2022-09-02T05:25:41.532Z,98601.09
2022-09-02T05:31:05.617Z,98603.44
2022-09-02T05:36:27.548Z,98598.88
2022-09-02T05:41:49.260Z,98599.59
2022-09-02T05:47:12.120Z,98594.38
2022-09-02T05:52:34.052Z,98602.94
2022-09-02T05:57:55.793Z,98595.41
2022-09-02T06:03:19.384Z,98595.31
2022-09-02T06:08:42.705Z,98593.03
2022-09-02T06:14:05.785Z,98602.25
2022-09-02T06:19:30.317Z,98605.88
2022-09-02T06:24:52.439Z,98598.19
2022-09-02T06:30:14.204Z,98589.34
2022-09-02T06:35:42.236Z,98590.63
2022-09-02T06:41:03.987Z,98576.88
2022-09-02T06:46:28.736Z,98582.50
2022-09-02T06:51:52.012Z,98585.88
2022-09-02T06:57:14.470Z,98586.44
2022-09-02T07:02:37.190Z,98585.09
2022-09-02T07:07:58.894Z,98576.72
2022-09-02T07:13:20.649Z,98586.25
2022-09-02T07:18:43.900Z,98577.16
2022-09-02T07:24:08.776Z,98572.44
2022-09-02T07:29:30.592Z,98557.88
2022-09-02T07:34:52.340Z,98565.69
2022-09-02T07:40:14.245Z,98557.09
2022-09-02T07:45:38.119Z,98562.66
2022-09-02T07:51:01.038Z,98559.75
2022-09-02T07:56:22.764Z,98561.34
2022-09-02T08:01:45.019Z,98558.34
2022-09-02T08:07:06.926Z,98554.34
2022-09-02T08:12:28.826Z,98546.91
2022-09-02T08:17:50.932Z,98556.50
2022-09-02T08:23:35.568Z,98555.28
2022-09-02T08:28:55.637Z,98563.03
2022-09-02T08:34:17.713Z,98554.81
2022-09-02T08:39:39.406Z,98545.19
2022-09-02T08:45:31.537Z,98539.78
2022-09-02T08:51:02.274Z,98537.25
2022-09-02T08:56:24.460Z,98532.34
2022-09-02T09:01:58.304Z,98523.56
2022-09-02T09:07:51.050Z,98525.09
2022-09-02T09:13:32.085Z,98518.25
2022-09-02T09:19:17.349Z,98506.94
2022-09-02T09:24:41.416Z,98510.97
2022-09-02T09:30:07.930Z,98493.19
2022-09-02T09:36:03.723Z,98495.84
2022-09-02T09:41:25.783Z,98488.41
2022-09-02T09:47:00.714Z,98488.22
2022-09-02T09:52:27.888Z,98489.69
2022-09-02T09:57:50.298Z,98485.09
2022-09-02T10:03:32.924Z,98469.56
2022-09-02T10:08:57.812Z,98469.59
2022-09-02T10:14:19.612Z,98467.34
2022-09-02T10:20:05.297Z,98459.28
2022-09-02T10:25:47.886Z,98459.50
2022-09-02T10:31:46.601Z,98454.69
2022-09-02T10:37:27.057Z,98450.59
2022-09-02T10:43:06.127Z,98437.56
2022-09-02T10:48:49.714Z,98432.41
2022-09-02T10:54:43.686Z,98430.44
2022-09-02T11:00:09.446Z,98423.22
2022-09-02T11:05:51.836Z,98410.75
2022-09-02T11:11:22.404Z,98399.69
2022-09-02T11:17:02.675Z,98388.72
2022-09-02T11:22:35.150Z,98394.38
2022-09-02T11:28:15.665Z,98376.47
2022-09-02T11:33:54.174Z,98383.00
2022-09-02T11:40:11.518Z,98377.88
2022-09-02T11:45:41.130Z,98371.59
2022-09-02T11:51:08.792Z,98370.66
2022-09-02T11:56:43.744Z,98367.91
2022-09-02T12:02:05.873Z,98359.28
2022-09-02T12:07:33.941Z,98356.28
2022-09-02T12:12:55.831Z,98361.41
2022-09-02T12:18:29.558Z,98368.38
2022-09-02T12:23:51.827Z,98352.94
2022-09-02T12:34:42.197Z,98352.03
2022-09-02T12:40:14.501Z,98347.88
2022-09-02T12:45:42.879Z,98337.91
2022-09-02T12:51:05.046Z,98338.91
2022-09-02T12:56:26.899Z,98331.09
2022-09-02T13:02:06.097Z,98320.41
2022-09-02T13:08:08.356Z,98320.94
2022-09-02T13:13:51.617Z,98326.78
2022-09-02T13:19:35.268Z,98309.31
2022-09-02T13:30:40.058Z,98295.84
2022-09-02T13:36:01.940Z,98281.81
2022-09-02T13:41:32.763Z,98271.97
2022-09-02T13:47:16.196Z,98265.97
2022-09-02T13:53:27.720Z,98263.31
2022-09-02T13:58:51.884Z,98260.81
2022-09-02T14:04:16.815Z,98253.94
2022-09-02T14:09:40.802Z,98242.41
2022-09-02T14:15:03.504Z,98244.47
2022-09-02T14:20:25.226Z,98227.31
2022-09-02T14:25:55.773Z,98213.81
2022-09-02T14:31:29.079Z,98204.47
2022-09-02T14:36:50.880Z,98199.94
2022-09-02T14:42:12.625Z,98197.94
2022-09-02T14:47:38.134Z,98204.47
2022-09-02T14:53:05.578Z,98203.03
2022-09-02T14:58:28.849Z,98198.75
2022-09-02T15:03:50.550Z,98198.44
2022-09-02T15:09:16.796Z,98189.66
2022-09-02T15:14:38.554Z,98182.19
2022-09-02T15:20:00.421Z,98181.69
2022-09-02T15:25:22.237Z,98178.38
2022-09-02T15:30:43.978Z,98164.09
2022-09-02T15:36:07.960Z,98195.75
2022-09-02T15:41:31.592Z,98212.44
2022-09-02T15:46:54.518Z,98213.13
2022-09-02T15:52:16.252Z,98218.44
2022-09-02T15:57:37.977Z,98211.69
2022-09-02T16:02:59.962Z,98203.56
2022-09-02T16:08:21.735Z,98197.69
2022-09-02T16:13:45.398Z,98197.56
2022-09-02T16:19:07.401Z,98185.13
2022-09-02T16:24:29.196Z,98189.31
2022-09-02T16:29:50.894Z,98196.81
2022-09-02T16:35:12.615Z,98188.69
2022-09-02T16:40:34.326Z,98189.03
2022-09-02T16:45:56.086Z,98196.03
2022-09-02T16:51:18.237Z,98183.41
2022-09-02T16:56:40.261Z,98189.53
2022-09-02T17:02:02.151Z,98190.38
2022-09-02T17:07:23.936Z,98198.19
2022-09-02T17:12:45.696Z,98187.91
2022-09-02T17:18:07.585Z,98192.06
2022-09-02T17:23:29.346Z,98193.75
2022-09-02T17:28:54.561Z,98181.97
2022-09-02T17:34:16.420Z,98178.31
2022-09-02T17:39:38.218Z,98187.97
2022-09-02T17:45:00.432Z,98189.66
2022-09-02T17:50:22.294Z,98178.81
2022-09-02T17:55:44.272Z,98178.00
2022-09-02T18:01:10.541Z,98183.97
2022-09-02T18:06:37.165Z,98184.84
2022-09-02T18:12:01.006Z,98189.28
2022-09-02T18:17:27.140Z,98192.47
2022-09-02T18:23:13.558Z,98192.47
2022-09-02T18:28:43.995Z,98204.59
2022-09-02T18:34:36.024Z,98210.22
2022-09-02T18:40:09.541Z,98209.38
2022-09-02T18:45:39.200Z,98221.19
2022-09-02T18:51:32.500Z,98221.19
2022-09-02T18:57:05.336Z,98230.47
2022-09-02T19:02:45.983Z,98234.47
2022-09-02T19:08:30.431Z,98233.13
2022-09-02T19:13:55.651Z,98231.59
2022-09-02T19:19:18.912Z,98240.53
2022-09-02T19:24:50.758Z,98235.19
2022-09-02T19:30:18.545Z,98237.00
2022-09-02T19:35:47.014Z,98235.34
2022-09-02T19:41:09.314Z,98235.66
2022-09-02T19:52:12.748Z,98220.06
2022-09-02T19:57:34.707Z,98219.38
2022-09-02T20:02:56.536Z,98212.56
2022-09-02T20:08:19.994Z,98204.06
2022-09-02T20:13:41.946Z,98199.28
2022-09-02T20:19:04.761Z,98195.75
2022-09-02T20:24:31.375Z,98198.22
2022-09-02T20:30:07.685Z,98196.03
2022-09-02T20:35:49.199Z,98188.59
2022-09-02T20:41:35.264Z,98183.78
2022-09-02T20:47:12.320Z,98189.19
2022-09-02T20:53:29.476Z,98200.59
2022-09-02T20:59:10.961Z,98207.81
2022-09-02T21:04:41.475Z,98207.38
2022-09-02T21:10:09.209Z,98208.66
2022-09-02T21:15:50.028Z,98221.38
2022-09-02T21:21:25.230Z,98220.66
2022-09-02T21:27:17.941Z,98220.66
2022-09-02T21:32:57.999Z,98214.75
2022-09-02T21:38:37.997Z,98215.38
2022-09-02T21:44:11.420Z,98233.03
2022-09-02T21:50:04.944Z,98221.38
2022-09-02T21:55:35.382Z,98219.09
2022-09-02T22:01:08.431Z,98221.47
2022-09-02T22:06:45.919Z,98224.81
2022-09-02T22:12:11.574Z,98220.28
2022-09-02T22:17:43.986Z,98224.00
2022-09-02T22:23:23.698Z,98219.75
2022-09-02T22:28:50.354Z,98234.00
2022-09-02T22:34:16.050Z,98225.00
2022-09-02T22:39:47.683Z,98225.16
2022-09-02T22:45:30.383Z,98225.09
2022-09-02T22:51:19.225Z,98225.16
2022-09-02T22:56:57.175Z,98225.69
2022-09-02T23:02:24.566Z,98212.25
2022-09-02T23:07:46.374Z,98218.94
2022-09-02T23:13:19.985Z,98218.28
2022-09-02T23:19:00.959Z,98208.69
2022-09-02T23:24:34.932Z,98211.50
2022-09-02T23:29:56.663Z,98218.44
2022-09-02T23:35:53.630Z,98198.00
2022-09-02T23:41:15.395Z,98205.06
2022-09-02T23:46:57.258Z,98196.94
2022-09-02T23:52:34.798Z,98198.81
2022-09-02T23:58:35.761Z,98191.38
